Nearby METAR Reports

 

CYOW - Ottawa Intl, Ontario, Canada
Distance from station: NNW 27km
Updated: Tue, 20-Oct-2020 1:44am EDT
Light rain, Mist, Overcast
Light rain, Mist, Overcast
 Wind from NNW
Wind: NNW 24 km/h
Temperature: 5°C
Wind Chill: 1°C
Dew Point: 4°C
Humidity: 93%
Barometer: 1021.7 hPa
Summary: Light rain, Mist
Clouds: Overcast
Visibility: 10 km
Cloud details: Partly cloudy 183 m
Overcast 610 m
2020/10/20 05:44 CYOW 200544Z 34013KT 6SM -RA BR SCT006 OVC020 05/04 A3017 RMK SF3SC5 VIS LWR E QUAD PRESFR SLP221
KMSS - Massena, New York, USA
Distance from station: ESE 54km
Updated: Tue, 20-Oct-2020 1:53am EDT
Rain, Mist, Overcast
Rain, Mist, Overcast
 Wind from N
Wind: N 9 km/h
Temperature: 8°C
Wind Chill: 6°C
Dew Point: 7°C
Humidity: 93%
Barometer: 1020 hPa
Summary: Rain, Mist
Clouds: Overcast
Visibility: 3 km
Cloud details: Mostly cloudy 122 m
Overcast 274 m
2020/10/20 05:53 KMSS 200553Z AUTO 35005KT 2SM RA BR BKN004 OVC009 08/07 A3012 RMK AO2 SLP204 P0010 60020 T00830072 10083 20072 58015
KOGS - Ogdensburg Intl, New York, USA
Distance from station: S 48km
Updated: Tue, 20-Oct-2020 1:35am EDT
Heavy rain, Overcast
Heavy rain, Overcast
 Wind from N
Wind: N 15 km/h
Temperature: 7°C
Wind Chill: 4°C
Dew Point: 7°C
Humidity: 100%
Barometer: 1019.3 hPa
Summary: Heavy rain
Clouds: Overcast
Visibility: 2.8 km
Cloud details: Overcast 91 m
2020/10/20 05:35 KOGS 200535Z AUTO 35008KT 1 3/4SM +RA OVC003 07/07 A3010 RMK AO2
 
CXKE - Kemptville, Ontario, Canada
Distance from station: SW 15km
Updated: Tue, 20-Oct-2020 1:00am EDT

 Wind from N
Wind: N 7 km/h
Temperature: 6°C
Wind Chill: 4°C
Dew Point: 6°C
Humidity: 100%
2020/10/20 05:00 CXKE 200500Z AUTO 36004KT 06/06 RMK AO1 SLP204 T00600056 57027